Home > Products > Valid Products > TAF

000
FTUS41 KBTV 011542 AAB
TAFBTV
TAF AMD
KBTV 011542Z 0116/0212 23008KT P6SM VCTS SCT040CB BKN100
      TEMPO 0116/0117 -TSRA BKN040CB
     FM011700 25010KT P6SM VCSH SCT040 SCT100
     FM020000 19004KT P6SM SCT080=



000
FTUS41 KBTV 011154 AAA
TAFSLK
TAF AMD
KSLK 011154Z 0112/0212 24006KT P6SM SCT015 SCT060 SCT100
      TEMPO 0112/0113 BKN015
     FM012000 25008KT P6SM SCT050 BKN080
     FM020000 23003KT P6SM SCT080=



000
FTUS41 KBTV 011120
TAFSLK
TAF
KSLK 011120Z 0112/0212 24006KT P6SM FEW060 SCT100
     FM012000 25008KT P6SM SCT050 BKN080
     FM020000 23003KT P6SM SCT080=



000
FTUS41 KBTV 011120
TAFBTV
TAF
KBTV 011120Z 0112/0212 18005KT P6SM FEW060 BKN100
     FM011400 23008KT P6SM SCT100
     FM020000 19004KT P6SM SCT080=



000
FTUS41 KBTV 011120
TAFSLK
TAF
KSLK 011120Z 0112/0212 24006KT P6SM FEW060 SCT100
     FM012000 25008KT P6SM SCT050 BKN080
     FM020000 23003KT P6SM SCT080=



000
FTUS41 KBTV 011120
TAFMPV
TAF
KMPV 011120Z 0112/0212 20005KT P6SM FEW060 BKN100
     FM011500 26007KT P6SM SCT100
     FM020000 VRB03KT P6SM SCT070=



000
FTUS41 KBTV 011120
TAFBTV
TAF
KBTV 011120Z 0112/0212 18005KT P6SM FEW060 BKN100
     FM011400 23008KT P6SM SCT100
     FM020000 19004KT P6SM SCT080=



000
FTUS41 KBTV 011120
TAFMPV
TAF
KMPV 011120Z 0112/0212 20005KT P6SM FEW060 BKN100
     FM011500 26007KT P6SM SCT100
     FM020000 VRB03KT P6SM SCT070=



000
FTUS41 KBTV 011120
TAFMSS
TAF
KMSS 011120Z 0112/0212 24008KT P6SM SCT050 BKN090
     FM012000 25009KT P6SM VCSH SCT060 BKN090
     FM020000 23004KT P6SM SCT090=



000
FTUS41 KBTV 011120
TAFMSS
TAF
KMSS 011120Z 0112/0212 24008KT P6SM SCT050 BKN090
     FM012000 25009KT P6SM VCSH SCT060 BKN090
     FM020000 23004KT P6SM SCT090=



000
FTUS41 KBTV 011003 AAB
TAFSLK
TAF AMD
KSLK 011003Z 0110/0206 23006KT P6SM SCT008 BKN100
      TEMPO 0110/0112 BKN008
     FM011200 24007KT P6SM SCT100
     FM020000 23004KT P6SM SCT080=



000
FTUS41 KBTV 011003 AAB
TAFSLK
TAF AMD
KSLK 011003Z 0110/0206 23006KT P6SM SCT008 BKN100
      TEMPO 0110/0112 BKN008
     FM011200 24007KT P6SM SCT100
     FM020000 23004KT P6SM SCT080=



000
FTUS41 KBTV 010905 AAB
TAFMPV
TAF AMD
KMPV 010905Z 0109/0206 00000KT P6SM BKN120
     FM011000 VRB02KT P6SM FEW060 BKN110
      TEMPO 0110/0111 -SHRA SCT060 OVC110
     FM011400 25007KT P6SM SCT100
     FM020000 VRB03KT P6SM SCT070=



000
FTUS41 KBTV 010905 AAB
TAFMPV
TAF AMD
KMPV 010905Z 0109/0206 00000KT P6SM BKN120
     FM011000 VRB02KT P6SM FEW060 BKN110
      TEMPO 0110/0111 -SHRA SCT060 OVC110
     FM011400 25007KT P6SM SCT100
     FM020000 VRB03KT P6SM SCT070=



000
FTUS41 KBTV 010903 AAB
TAFBTV
TAF AMD
KBTV 010903Z 0109/0206 18005KT P6SM FEW060 BKN110
      TEMPO 0109/0110 -SHRA SCT060 OVC110
     FM011300 23008KT P6SM SCT100
     FM020000 19004KT P6SM SCT080=



000
FTUS41 KBTV 010901 AAA
TAFSLK
TAF AMD
KSLK 010901Z 0109/0206 23006KT P6SM -SHRA SCT060 OVC100
     FM011000 23006KT P6SM BKN100
     FM011200 24007KT P6SM SCT100
     FM020000 23004KT P6SM SCT080=



000
FTUS41 KBTV 010650 AAA
TAFMPV
TAF AMD
KMPV 010650Z 0107/0206 00000KT P6SM BKN120
      TEMPO 0107/0108 -SHRA SCT060 BKN100
     FM011000 VRB02KT P6SM VCSH BKN060 BKN100
      TEMPO 0110/0113 6SM -SHRA BR BKN060
     FM011400 25007KT P6SM SCT100
     FM020000 VRB03KT P6SM SCT070=



000
FTUS41 KBTV 010520
TAFSLK
TAF
KSLK 010520Z 0106/0206 23005KT P6SM SCT060 BKN100
     FM010800 22005KT 5SM -SHRA BR BKN060 OVC100
      TEMPO 0108/0110 3SM TSRA BR BKN035CB OVC060
     FM011200 24007KT P6SM SCT090
     FM020000 23004KT P6SM SCT080=



000
FTUS41 KBTV 010520
TAFBTV
TAF
KBTV 010520Z 0106/0206 18004KT P6SM BKN100
     FM010900 18005KT P6SM VCSH BKN060 OVC100
      TEMPO 0109/0113 6SM -SHRA BR BKN050
     FM011300 23008KT P6SM SCT100
     FM020000 19004KT P6SM SCT080=



000
FTUS41 KBTV 010520
TAFMPV
TAF
KMPV 010520Z 0106/0206 00000KT P6SM BKN120
     FM011000 VRB02KT P6SM VCSH BKN060 BKN100
     FM011400 25007KT P6SM SCT100
     FM020000 VRB03KT P6SM SCT070=



000
FTUS41 KBTV 010520
TAFSLK
TAF
KSLK 010520Z 0106/0206 23005KT P6SM SCT060 BKN100
     FM010800 22005KT 5SM -SHRA BR BKN060 OVC100
      TEMPO 0108/0110 3SM TSRA BR BKN035CB OVC060
     FM011200 24007KT P6SM SCT090
     FM020000 23004KT P6SM SCT080=



000
FTUS41 KBTV 010520
TAFMSS
TAF
KMSS 010520Z 0106/0206 23004KT P6SM BKN100
     FM011200 24008KT P6SM SCT100
     FM012000 24009KT P6SM VCSH SCT060 BKN090
     FM020000 23004KT P6SM SCT090=



000
FTUS41 KBTV 010520
TAFMPV
TAF
KMPV 010520Z 0106/0206 00000KT P6SM BKN120
     FM011000 VRB02KT P6SM VCSH BKN060 BKN100
     FM011400 25007KT P6SM SCT100
     FM020000 VRB03KT P6SM SCT070=



000
FTUS41 KBTV 010520
TAFMSS
TAF
KMSS 010520Z 0106/0206 23004KT P6SM BKN100
     FM011200 24008KT P6SM SCT100
     FM012000 24009KT P6SM VCSH SCT060 BKN090
     FM020000 23004KT P6SM SCT090=



000
FTUS41 KBTV 010520
TAFBTV
TAF
KBTV 010520Z 0106/0206 18004KT P6SM BKN100
     FM010900 18005KT P6SM VCSH BKN060 OVC100
      TEMPO 0109/0113 6SM -SHRA BR BKN050
     FM011300 23008KT P6SM SCT100
     FM020000 19004KT P6SM SCT080=



000
FTUS41 KBTV 010337 AAA
TAFSLK
TAF AMD
KSLK 010337Z 0104/0124 24004KT P6SM VCSH SCT050 BKN100
      TEMPO 0104/0105 5SM -SHRA BR BKN050
     FM010600 24004KT P6SM VCSH BKN060
     FM011200 24006KT P6SM SCT080
     FM011700 25011G20KT P6SM BKN090=



000
FTUS41 KBTV 312333
TAFSLK
TAF
KSLK 312333Z 0100/0124 24006KT P6SM SCT250
     FM010600 24005KT 5SM -SHRA BR BKN040
     FM011200 24006KT P6SM SCT080
     FM011700 25011G20KT P6SM BKN090=



000
FTUS41 KBTV 312333
TAFBTV
TAF
KBTV 312333Z 0100/0124 22004KT P6SM FEW200
     FM010800 19005KT P6SM VCSH BKN050 BKN200
     FM011400 23010KT P6SM SCT120=



000
FTUS41 KBTV 312333
TAFMPV
TAF
KMPV 312333Z 0100/0124 VRB03KT P6SM FEW110
     FM010800 VRB03KT 3SM BR SCT100
     FM011000 22006KT 6SM BR VCSH SCT050 SCT110
     FM011400 25009G15KT P6SM BKN110=



000
FTUS41 KBTV 312333
TAFMSS
TAF
KMSS 312333Z 0100/0124 22007KT P6SM FEW150
     FM010500 22007KT 5SM -SHRA BR BKN050
     FM011100 24010KT P6SM SCT110
     FM012000 24010KT P6SM VCSH BKN090
     FM012200 24009KT P6SM BKN110=



000
FTUS41 KBTV 312333
TAFMPV
TAF
KMPV 312333Z 0100/0124 VRB03KT P6SM FEW110
     FM010800 VRB03KT 3SM BR SCT100
     FM011000 22006KT 6SM BR VCSH SCT050 SCT110
     FM011400 25009G15KT P6SM BKN110=



000
FTUS41 KBTV 312333
TAFMSS
TAF
KMSS 312333Z 0100/0124 22007KT P6SM FEW150
     FM010500 22007KT 5SM -SHRA BR BKN050
     FM011100 24010KT P6SM SCT110
     FM012000 24010KT P6SM VCSH BKN090
     FM012200 24009KT P6SM BKN110=



000
FTUS41 KBTV 312333
TAFBTV
TAF
KBTV 312333Z 0100/0124 22004KT P6SM FEW200
     FM010800 19005KT P6SM VCSH BKN050 BKN200
     FM011400 23010KT P6SM SCT120=



000
FTUS41 KBTV 312333
TAFSLK
TAF
KSLK 312333Z 0100/0124 24006KT P6SM SCT250
     FM010600 24005KT 5SM -SHRA BR BKN040
     FM011200 24006KT P6SM SCT080
     FM011700 25011G20KT P6SM BKN090=



000
FTUS41 KBTV 311720
TAFSLK
TAF
KSLK 311720Z 3118/0118 26009G16KT P6SM BKN045
     FM010000 23005KT P6SM SCT060
     FM010700 23003KT 5SM -SHRA BR BKN035 OVC050
     FM011200 24010KT P6SM BKN040=



000
FTUS41 KBTV 311720
TAFMSS
TAF
KMSS 311720Z 3118/0118 24011G18KT P6SM SCT070
     FM010000 22005KT P6SM SCT060
     FM010500 22004KT 6SM -SHRA BR SCT035 OVC050
     FM011100 24007KT P6SM BKN050=



000
FTUS41 KBTV 311720
TAFBTV
TAF
KBTV 311720Z 3118/0118 28010G17KT P6SM SCT050
     FM010000 20005KT P6SM SCT060
     FM010800 18006KT P6SM VCSH BKN050
     FM011300 22010KT P6SM BKN050=



000
FTUS41 KBTV 311720
TAFMPV
TAF
KMPV 311720Z 3118/0118 28010G17KT P6SM SCT045
     FM010000 VRB03KT P6SM SCT060
     FM010700 00000KT 2SM BR SCT020
     FM010900 VRB03KT 5SM BR VCSH BKN045
     FM011300 26008KT P6SM BKN050=



000
FTUS41 KBTV 311120
TAFMSS
TAF
KMSS 311120Z 3112/0112 23008KT P6SM FEW070
     FM311400 24011G18KT P6SM SCT070
     FM010000 22005KT P6SM VCSH BKN060
     FM010500 22004KT 6SM -SHRA BR SCT035 OVC050=



000
FTUS41 KBTV 311120
TAFSLK
TAF
KSLK 311120Z 3112/0112 25006KT P6SM SCT070
     FM311400 26009G16KT P6SM BKN070
     FM010000 23005KT P6SM SCT060
     FM010700 23003KT 5SM -SHRA BR BKN035 OVC050=



000
FTUS41 KBTV 311120
TAFMPV
TAF
KMPV 311120Z 3112/0112 VRB02KT P6SM SCT070
     FM311400 26010G17KT P6SM FEW070
     FM010000 VRB03KT P6SM SCT060
     FM010900 VRB03KT P6SM VCSH BKN060=



000
FTUS41 KBTV 311120
TAFBTV
TAF
KBTV 311120Z 3112/0112 20006KT P6SM SCT070
     FM311400 25010G17KT P6SM FEW070
     FM010000 20005KT P6SM SCT060
     FM010800 18006KT P6SM VCSH BKN060=



000
FTUS41 KBTV 310520
TAFMSS
TAF
KMSS 310520Z 3106/0106 23007KT P6SM SCT080
     FM311400 24010G18KT P6SM SCT070
     FM010000 22005KT P6SM VCSH BKN060=



000
FTUS41 KBTV 310520
TAFBTV
TAF
KBTV 310520Z 3106/0106 20006KT P6SM SCT080
     FM311400 25010G16KT P6SM SCT070
     FM010000 20005KT P6SM SCT060=



000
FTUS41 KBTV 310520
TAFSLK
TAF
KSLK 310520Z 3106/0106 24005KT P6SM SCT070
     FM311400 25009G16KT P6SM BKN070
     FM010000 23004KT P6SM BKN060=



000
FTUS41 KBTV 310520
TAFBTV
TAF
KBTV 310520Z 3106/0106 20006KT P6SM SCT080
     FM311400 25010G16KT P6SM SCT070
     FM010000 20005KT P6SM SCT060=



000
FTUS41 KBTV 310520
TAFMPV
TAF
KMPV 310520Z 3106/0106 VRB02KT P6SM SCT080
      TEMPO 3109/3112 3SM BR
     FM311400 26010G17KT P6SM SCT070
     FM010000 VRB03KT P6SM SCT060=



000
FTUS41 KBTV 310520
TAFSLK
TAF
KSLK 310520Z 3106/0106 24005KT P6SM SCT070
     FM311400 25009G16KT P6SM BKN070
     FM010000 23004KT P6SM BKN060=



000
FTUS41 KBTV 310520
TAFMSS
TAF
KMSS 310520Z 3106/0106 23007KT P6SM SCT080
     FM311400 24010G18KT P6SM SCT070
     FM010000 22005KT P6SM VCSH BKN060=



000
FTUS41 KBTV 310520
TAFMPV
TAF
KMPV 310520Z 3106/0106 VRB02KT P6SM SCT080
      TEMPO 3109/3112 3SM BR
     FM311400 26010G17KT P6SM SCT070
     FM010000 VRB03KT P6SM SCT060=



000
FTUS41 KBTV 302330
TAFMSS
TAF
KMSS 302330Z 3100/3124 23007KT P6SM FEW200
     FM311200 24010G18KT P6SM BKN100
     FM312200 23010KT P6SM BKN250=



000
FTUS41 KBTV 302330
TAFMPV
TAF
KMPV 302330Z 3100/3124 24005KT P6SM FEW060
     FM310600 25003KT 4SM BR SCT001
     FM310700 00000KT 1SM BR SCT001
     FM311200 29009G17KT P6SM SCT045
     FM311600 27008KT P6SM SCT150=



000
FTUS41 KBTV 302330
TAFSLK
TAF
KSLK 302330Z 3100/3124 24006KT P6SM SCT060
     FM310800 24004KT 4SM BR SCT020
     FM311200 25009G16KT P6SM SCT040
     FM312200 23006KT P6SM SCT050=



000
FTUS41 KBTV 302330
TAFMSS
TAF
KMSS 302330Z 3100/3124 23007KT P6SM FEW200
     FM311200 24010G18KT P6SM BKN100
     FM312200 23010KT P6SM BKN250=



000
FTUS41 KBTV 302330
TAFBTV
TAF
KBTV 302330Z 3100/3124 22006KT P6SM SCT050
     FM311200 26012G17KT P6SM SCT050
     FM312000 27008KT P6SM SCT250=



000
FTUS41 KBTV 302330
TAFSLK
TAF
KSLK 302330Z 3100/3124 24006KT P6SM SCT060
     FM310800 24004KT 4SM BR SCT020
     FM311200 25009G16KT P6SM SCT040
     FM312200 23006KT P6SM SCT050=



000
FTUS41 KBTV 302330
TAFBTV
TAF
KBTV 302330Z 3100/3124 22006KT P6SM SCT050
     FM311200 26012G17KT P6SM SCT050
     FM312000 27008KT P6SM SCT250=



000
FTUS41 KBTV 302330
TAFMPV
TAF
KMPV 302330Z 3100/3124 24005KT P6SM FEW060
     FM310600 25003KT 4SM BR SCT001
     FM310700 00000KT 1SM BR SCT001
     FM311200 29009G17KT P6SM SCT045
     FM311600 27008KT P6SM SCT150=



000
FTUS41 KBTV 301720
TAFBTV
TAF
KBTV 301720Z 3018/3118 18010KT P6SM -SHRA BKN050 OVC080
      TEMPO 3018/3019 3SM -SHRA BKN035
     FM302000 20009KT P6SM SCT050
      TEMPO 3020/3021 BKN050
     FM310000 20007KT P6SM SCT050
     FM311200 26010G17KT P6SM SCT050=



000
FTUS41 KBTV 301720
TAFBTV
TAF
KBTV 301720Z 3018/3118 18010KT P6SM -SHRA BKN050 OVC080
      TEMPO 3018/3019 3SM -SHRA BKN035
     FM302000 20009KT P6SM SCT050
      TEMPO 3020/3021 BKN050
     FM310000 20007KT P6SM SCT050
     FM311200 26010G17KT P6SM SCT050=



000
FTUS41 KBTV 301720
TAFMSS
TAF
KMSS 301720Z 3018/3118 24010G19KT P6SM SCT040
     FM310000 23006KT P6SM FEW040
     FM311200 24010G18KT P6SM SCT045=



000
FTUS41 KBTV 301720
TAFMPV
TAF
KMPV 301720Z 3018/3118 19007G14KT 6SM -SHRA SCT045 OVC100
      TEMPO 3018/3020 VRB15G25KT 3SM TSRA BR BKN020 OVC045CB
     FM302100 24007KT P6SM SCT060 SCT250
     FM310000 24005KT P6SM FEW060
     FM310700 25004KT 2SM BR SCT001
     FM311200 29009G17KT P6SM SCT045=



000
FTUS41 KBTV 301720
TAFSLK
TAF
KSLK 301720Z 3018/3118 24008KT 5SM HZ VCSH BKN035
     FM302000 24009G16KT P6SM SCT040
     FM310000 24006KT P6SM SCT060
     FM310700 24004KT 4SM BR SCT020
     FM311200 25009G16KT P6SM SCT040=



000
FTUS41 KBTV 301720
TAFMPV
TAF
KMPV 301720Z 3018/3118 19007G14KT 6SM -SHRA SCT045 OVC100
      TEMPO 3018/3020 VRB15G25KT 3SM TSRA BR BKN020 OVC045CB
     FM302100 24007KT P6SM SCT060 SCT250
     FM310000 24005KT P6SM FEW060
     FM310700 25004KT 2SM BR SCT001
     FM311200 29009G17KT P6SM SCT045=



000
FTUS41 KBTV 301120
TAFBTV
TAF
KBTV 301120Z 3012/3112 18008G15KT P6SM SCT250
     FM301600 18010KT P6SM VCTS SCT050CB BKN120
      TEMPO 3016/3018 VRB15G25KT 3SM TSRA BR BKN025 OVC050CB
     FM301800 19007KT P6SM SCT070 SCT250
     FM310000 18005KT P6SM FEW070=



000
FTUS41 KBTV 301120
TAFMSS
TAF
KMSS 301120Z 3012/3112 22006KT P6SM SCT060 SCT250
     FM301300 23008KT P6SM VCSH BKN060 OVC120
      TEMPO 3013/3015 5SM -SHRA BR BKN035 OVC060
     FM301600 24010G19KT P6SM SCT070 SCT250
     FM310000 23006KT P6SM FEW070=



000
FTUS41 KBTV 301120
TAFSLK
TAF
KSLK 301120Z 3012/3112 22005KT P6SM SCT060 SCT250
     FM301400 23007KT P6SM VCSH BKN050 OVC120
      TEMPO 3014/3016 3SM SHRA BR BKN028 OVC040
     FM301700 24009G16KT P6SM SCT060 SCT250
     FM310000 23004KT P6SM SCT060=



000
FTUS41 KBTV 301120
TAFMPV
TAF
KMPV 301120Z 3012/3112 18003KT P6SM SCT250
     FM301700 19007G14KT P6SM VCTS SCT045CB BKN120
      TEMPO 3017/3019 VRB15G25KT 2SM +TSRA BR BKN020 OVC045CB
     FM301900 22005KT P6SM SCT060 SCT250
     FM310000 22003KT P6SM FEW060
     FM310700 00000KT 2SM BR SCT001=



000
FTUS41 KBTV 300531
TAFBTV
TAF
KBTV 300531Z 3006/3106 15003KT P6SM SKC
     FM301200 18009KT P6SM SKC
     FM301700 18010KT 6SM -TSRA BR SCT050CB BKN120
     FM301900 19007KT P6SM SCT070 SCT250
     FM310000 18005KT P6SM SKC=



000
FTUS41 KBTV 300531
TAFSLK
TAF
KSLK 300531Z 3006/3106 VRB02KT 5SM BR SKC
     FM301200 22005KT P6SM SCT250
     FM301500 22008KT 5SM SHRA BR BKN050 OVC120
     FM301700 24009G16KT P6SM SCT060 SCT250
     FM310000 23004KT P6SM SKC=



000
FTUS41 KBTV 300531
TAFMSS
TAF
KMSS 300531Z 3006/3106 22003KT P6SM SKC
     FM301100 22006KT P6SM SCT150 SCT250
     FM301400 23008KT 6SM -SHRA BR BKN060 OVC120
     FM301600 24010G19KT P6SM SCT070 SCT250
     FM310000 23006KT P6SM SKC=



000
FTUS41 KBTV 300531
TAFMPV
TAF
KMPV 300531Z 3006/3106 VRB02KT P6SM SKC
     FM300800 00000KT 5SM BR SKC
      TEMPO 3008/3012 2SM BR BKN001
     FM301300 18003KT P6SM SKC
     FM301800 19007KT 5SM -TSRA BR SCT040CB BKN120
     FM302000 22005KT P6SM SCT060 SCT250
     FM310000 22003KT P6SM SKC=



000
FTUS41 KBTV 300531
TAFMPV
TAF
KMPV 300531Z 3006/3106 VRB02KT P6SM SKC
     FM300800 00000KT 5SM BR SKC
      TEMPO 3008/3012 2SM BR BKN001
     FM301300 18003KT P6SM SKC
     FM301800 19007KT 5SM -TSRA BR SCT040CB BKN120
     FM302000 22005KT P6SM SCT060 SCT250
     FM310000 22003KT P6SM SKC=



000
FTUS41 KBTV 300531
TAFSLK
TAF
KSLK 300531Z 3006/3106 VRB02KT 5SM BR SKC
     FM301200 22005KT P6SM SCT250
     FM301500 22008KT 5SM SHRA BR BKN050 OVC120
     FM301700 24009G16KT P6SM SCT060 SCT250
     FM310000 23004KT P6SM SKC=



000
FTUS41 KBTV 300531
TAFBTV
TAF
KBTV 300531Z 3006/3106 15003KT P6SM SKC
     FM301200 18009KT P6SM SKC
     FM301700 18010KT 6SM -TSRA BR SCT050CB BKN120
     FM301900 19007KT P6SM SCT070 SCT250
     FM310000 18005KT P6SM SKC=



000
FTUS41 KBTV 300531
TAFMSS
TAF
KMSS 300531Z 3006/3106 22003KT P6SM SKC
     FM301100 22006KT P6SM SCT150 SCT250
     FM301400 23008KT 6SM -SHRA BR BKN060 OVC120
     FM301600 24010G19KT P6SM SCT070 SCT250
     FM310000 23006KT P6SM SKC=



000
FTUS41 KBTV 292337
TAFBTV
TAF
KBTV 292337Z 3000/3024 17004KT P6SM SCT200
     FM301200 18010KT P6SM SCT050 BKN120
     FM301700 18011KT 5SM -SHRA BKN050 BKN080
     FM302000 22007KT P6SM SCT250=



000
FTUS41 KBTV 292337
TAFMPV
TAF
KMPV 292337Z 3000/3024 00000KT P6SM SCT200
     FM300700 00000KT 5SM BR SCT002 SCT250
     FM300900 00000KT 1SM BR BKN002
     FM301300 18003KT P6SM SCT005 SCT120
     FM301700 18007KT P6SM VCSH SCT050 BKN120
     FM302100 24006KT P6SM BKN100=



000
FTUS41 KBTV 292337
TAFMSS
TAF
KMSS 292337Z 3000/3024 21004KT P6SM SCT250
     FM301200 21006KT P6SM VCSH FEW050 SCT120 BKN200
     FM301400 23008KT 5SM -SHRA BR BKN035 BKN120
     FM301600 23010G17KT P6SM SCT050 BKN080=



000
FTUS41 KBTV 292337
TAFSLK
TAF
KSLK 292337Z 3000/3024 00000KT P6SM SCT200
     FM300600 22005KT 5SM BR SCT250
     FM301300 22008KT 5SM SHRA SCT035 BKN120
     FM301700 22009KT P6SM BKN100=



000
FTUS41 KBTV 292153 AAD
TAFBTV
TAF AMD
KBTV 292153Z 2922/3018 19006KT P6SM -SHRA VCTS FEW030 BKN050CB
      BKN200
      TEMPO 2922/2923 28014G25KT 2SM -TSRA SCT050CB BKN080
     FM292300 19006KT P6SM FEW050 SCT200
     FM300000 17004KT P6SM SCT200
     FM301200 18010KT P6SM SCT050 BKN120
     FM301700 18011KT P6SM VCSH BKN050 BKN080=



000
FTUS41 KBTV 292153 AAD
TAFBTV
TAF AMD
KBTV 292153Z 2922/3018 19006KT P6SM -SHRA VCTS FEW030 BKN050CB
      BKN200
      TEMPO 2922/2923 28014G25KT 2SM -TSRA SCT050CB BKN080
     FM292300 19006KT P6SM FEW050 SCT200
     FM300000 17004KT P6SM SCT200
     FM301200 18010KT P6SM SCT050 BKN120
     FM301700 18011KT P6SM VCSH BKN050 BKN080=



000
FTUS41 KBTV 292113 AAC
TAFBTV
TAF AMD
KBTV 292113Z 2921/3018 19006KT P6SM -SHRA VCTS FEW030 BKN050CB
      BKN200
      TEMPO 2921/2922 28014G25KT 2SM -SHRA SCT050 BKN080
     FM292200 19006KT P6SM FEW050 SCT200
     FM300000 17004KT P6SM SCT200
     FM301200 18010KT P6SM SCT050 BKN120
     FM301700 18011KT P6SM VCSH BKN050 BKN080=



000
FTUS41 KBTV 292110 AAB
TAFBTV
TAF AMD
KBTV 292110Z 2921/3018 19006KT P6SM -SHRA VCTS FEW030 BKN050CB
      BKN200
     FM292145 19006KT P6SM FEW050 SCT200
     FM300000 17004KT P6SM SCT200
     FM301200 18010KT P6SM SCT050 BKN120
     FM301700 18011KT P6SM VCSH BKN050 BKN080=



000
FTUS41 KBTV 292036 AAA
TAFBTV
TAF AMD
KBTV 292036Z 2921/3018 19006KT P6SM -SHRA VCTS FEW030 BKN050CB
      BKN200
     FM292115 19006KT P6SM FEW050 SCT200
     FM300000 17004KT P6SM SCT200
     FM301200 18010KT P6SM SCT050 BKN120
     FM301700 18011KT P6SM VCSH BKN050 BKN080=



000
FTUS41 KBTV 292036 AAA
TAFBTV
TAF AMD
KBTV 292036Z 2921/3018 19006KT P6SM -SHRA VCTS FEW030 BKN050CB
      BKN200
     FM292115 19006KT P6SM FEW050 SCT200
     FM300000 17004KT P6SM SCT200
     FM301200 18010KT P6SM SCT050 BKN120
     FM301700 18011KT P6SM VCSH BKN050 BKN080=



000
FTUS41 KBTV 291723
TAFMPV
TAF
KMPV 291723Z 2918/3018 30006KT P6SM SCT050 SCT200
     FM300000 00000KT P6SM SCT200
     FM300700 00000KT 5SM HZ SCT002 SCT250
     FM300900 00000KT 1SM BR BKN002
     FM301200 18003KT P6SM SCT005 SCT120
     FM301700 18007KT P6SM VCSH SCT050 BKN120=



000
FTUS41 KBTV 291723
TAFMSS
TAF
KMSS 291723Z 2918/3018 22008KT P6SM SCT100 BKN200
     FM300000 21004KT P6SM SCT250
     FM301200 21006KT P6SM VCSH FEW050 SCT120 BKN200
     FM301400 23008KT 5SM -SHRA BR BKN035 BKN120
     FM301700 23010G17KT P6SM SCT050 BKN080=



000
FTUS41 KBTV 291723
TAFSLK
TAF
KSLK 291723Z 2918/3018 24005KT P6SM SCT045 BKN200
     FM300000 00000KT P6SM SCT200
     FM300600 00000KT 5SM BR SCT250
     FM300800 00000KT 3SM BR SCT250
     FM301100 22005KT 6SM HZ FEW050 BKN200
     FM301330 22008KT P6SM VCSH SCT035 BKN120
     FM301500 22009KT 5SM -SHRA BR BKN035=



000
FTUS41 KBTV 291723
TAFBTV
TAF
KBTV 291723Z 2918/3018 19006KT P6SM FEW050 SCT200
     FM300000 17004KT P6SM SCT200
     FM301200 18010KT P6SM SCT050 BKN120
     FM301700 18011KT P6SM VCSH BKN050 BKN080=



    US Dept of Commerce
    National Oceanic and Atmospheric Administration
    National Weather Service
    1325 East West Highway
    Silver Spring, MD 20910
    Page Author: NWS Internet Services Team
Disclaimer
Information Quality
Credits
Glossary
Privacy Policy
Freedom of Information Act (FOIA)
About Us
Career Opportunities